PST,Max TemperatureF,Mean TemperatureF,Min TemperatureF,Max Dew PointF,MeanDew PointF,Min DewpointF,Max Humidity, Mean Humidity, Min Humidity, Max Sea Level PressureIn, Mean Sea Level PressureIn, Min Sea Level PressureIn, Max VisibilityMiles, Mean VisibilityMiles, Min VisibilityMiles, Max Wind SpeedMPH, Mean Wind SpeedMPH, Max Gust SpeedMPH,PrecipitationIn, CloudCover, Events, WindDirDegrees
2013-12-1,63,48,32,39,33,28,82,66,42,30.45,30.37,30.28,10,9,5,7,1,12,0.00,0,,40
2013-12-2,48,39,30,28,27,27,85,84,82,30.24,30.22,30.20,7,6,5,13,2,24,0.03,0,,350
2013-12-3,36,31,26,19,17,11,63,56,47,30.07,30.00,29.91,10,10,10,18,9,30,T,4,,326
2013-12-4,30,21,11,9,5,2,67,53,36,30.25,30.18,30.08,10,9,5,12,5,25,0.00,0,,5
2013-12-5,32,20,7,7,4,-1,73,55,32,30.29,30.20,30.02,10,9,2,10,4,17,0.00,2,,14
2013-12-6,30,25,19,21,16,5,88,72,42,30.17,29.94,29.77,10,3,0,13,3,19,0.20,8,Snow,103
2013-12-7,29,17,5,20,13,0,88,72,50,30.36,30.02,29.74,10,6,1,12,4,20,T,5,Snow,353
2013-12-8,23,12,1,9,2,-6,79,69,57,30.59,30.47,30.36,10,9,4,12,3,19,0.00,0,,353
2013-12-9,30,17,4,11,5,-2,83,61,43,30.69,30.62,30.57,10,10,8,13,5,20,0.00,0,,359
2013-12-10,33,23,12,13,10,5,70,54,43,30.56,30.49,30.43,10,10,6,12,6,21,0.00,0,,318
2013-12-11,42,30,17,20,16,13,84,66,41,30.45,30.40,30.25,10,8,2,10,4,19,0.00,0,,18
2013-12-12,52,35,18,32,19,13,84,61,24,30.41,30.33,30.25,10,7,3,7,1,15,0.00,1,,45
2013-12-13,49,37,25,29,25,21,85,64,46,30.52,30.42,30.29,10,9,4,12,2,20,0.00,2,,35
2013-12-14,50,38,25,30,25,20,81,68,46,30.58,30.54,30.48,10,10,9,9,4,18,0.00,0,,36
2013-12-15,50,39,27,29,24,17,82,61,42,30.54,30.50,30.45,10,10,9,12,6,20,0.00,0,,10
2013-12-16,53,40,27,26,23,17,70,58,32,30.51,30.44,30.38,10,10,5,13,5,21,0.00,0,,41
2013-12-17,58,43,28,27,23,20,75,58,30,30.38,30.30,30.20,10,8,4,9,2,15,0.00,0,,34
2013-12-18,51,39,26,28,24,18,75,60,36,30.18,30.02,29.83,10,10,7,17,6,30,0.00,2,,351
2013-12-19,40,35,30,28,18,8,75,56,32,30.17,30.04,29.84,10,10,4,20,8,34,0.01,3,Snow,340
2013-12-20,52,38,24,40,21,8,66,47,30,30.16,30.09,30.00,10,10,9,16,7,27,T,4,,337
2013-12-21,54,45,36,38,33,31,76,61,46,30.28,30.12,29.99,10,10,10,17,8,33,0.00,1,,326
2013-12-22,57,44,30,37,33,26,85,69,47,30.48,30.38,30.27,10,10,8,16,5,25,0.00,1,,328
2013-12-23,55,42,28,36,30,22,85,66,43,30.54,30.49,30.46,10,10,7,12,4,21,0.00,1,,360
2013-12-24,51,40,28,36,30,20,89,74,50,30.56,30.51,30.46,10,10,5,9,4,16,0.00,0,,7
2013-12-25,51,37,23,31,23,15,78,63,41,30.56,30.51,30.43,10,10,8,13,5,22,0.00,0,,12
2013-12-26,53,40,26,29,21,16,69,57,35,30.49,30.43,30.36,10,9,3,10,4,17,0.00,0,,17
2013-12-27,55,40,25,24,20,15,68,51,29,30.38,30.32,30.26,10,8,5,6,1,10,0.00,0,,38
2013-12-28,51,39,27,23,19,14,64,51,27,30.42,30.37,30.29,10,10,7,10,4,19,0.00,0,,28
2013-12-29,52,37,22,16,13,10,57,43,23,30.45,30.40,30.35,10,9,5,9,4,17,0.00,0,,26
2013-12-30,58,42,25,20,17,14,68,45,19,30.40,30.34,30.28,10,8,4,8,1,14,0.00,0,,63
2013-12-31,57,44,30,21,18,15,59,44,22,30.38,30.34,30.30,10,9,5,9,2,15,0.00,1,,345